sensor_id;sensor_type;location;lat;lon;timestamp;P1;durP1;ratioP1;P2;durP2;ratioP2
19905;SDS011;10115;50.906;4.438;2023-03-01T00:02:19;12.93;;;11.83;;
19905;SDS011;10115;50.906;4.438;2023-03-01T00:04:45;10.87;;;10.10;;
19905;SDS011;10115;50.906;4.438;2023-03-01T00:07:11;11.40;;;10.60;;
19905;SDS011;10115;50.906;4.438;2023-03-01T00:09:37;11.03;;;10.13;;
19905;SDS011;10115;50.906;4.438;2023-03-01T00:12:03;11.73;;;10.93;;
19905;SDS011;10115;50.906;4.438;2023-03-01T00:14:29;11.63;;;10.87;;
19905;SDS011;10115;50.906;4.438;2023-03-01T00:16:54;11.50;;;10.70;;
19905;SDS011;10115;50.906;4.438;2023-03-01T00:19:20;9.60;;;8.70;;
19905;SDS011;10115;50.906;4.438;2023-03-01T00:21:49;10.23;;;9.60;;
19905;SDS011;10115;50.906;4.438;2023-03-01T00:24:15;11.23;;;10.63;;
19905;SDS011;10115;50.906;4.438;2023-03-01T00:26:41;11.70;;;10.90;;
19905;SDS011;10115;50.906;4.438;2023-03-01T00:29:07;10.93;;;10.27;;
19905;SDS011;10115;50.906;4.438;2023-03-01T00:31:33;11.70;;;10.93;;
19905;SDS011;10115;50.906;4.438;2023-03-01T00:34:00;11.90;;;11.10;;
19905;SDS011;10115;50.906;4.438;2023-03-01T00:36:29;11.93;;;11.03;;
19905;SDS011;10115;50.906;4.438;2023-03-01T00:38:57;10.27;;;9.63;;
19905;SDS011;10115;50.906;4.438;2023-03-01T00:41:23;11.63;;;10.00;;
19905;SDS011;10115;50.906;4.438;2023-03-01T00:43:51;10.10;;;9.53;;
19905;SDS011;10115;50.906;4.438;2023-03-01T00:46:19;9.80;;;9.03;;
19905;SDS011;10115;50.906;4.438;2023-03-01T00:48:46;10.43;;;9.73;;
19905;SDS011;10115;50.906;4.438;2023-03-01T00:51:16;10.20;;;9.57;;
19905;SDS011;10115;50.906;4.438;2023-03-01T00:53:46;11.17;;;10.13;;
19905;SDS011;10115;50.906;4.438;2023-03-01T00:56:14;11.90;;;10.90;;
19905;SDS011;10115;50.906;4.438;2023-03-01T00:58:40;10.60;;;9.93;;
19905;SDS011;10115;50.906;4.438;2023-03-01T01:01:07;11.17;;;10.47;;
19905;SDS011;10115;50.906;4.438;2023-03-01T01:03:42;11.20;;;10.23;;
19905;SDS011;10115;50.906;4.438;2023-03-01T01:06:19;10.83;;;10.27;;
19905;SDS011;10115;50.906;4.438;2023-03-01T01:08:47;11.33;;;10.63;;
19905;SDS011;10115;50.906;4.438;2023-03-01T01:11:13;11.73;;;10.87;;
19905;SDS011;10115;50.906;4.438;2023-03-01T01:13:40;11.60;;;10.90;;
19905;SDS011;10115;50.906;4.438;2023-03-01T01:16:06;12.63;;;11.73;;
19905;SDS011;10115;50.906;4.438;2023-03-01T01:18:33;10.67;;;9.87;;
19905;SDS011;10115;50.906;4.438;2023-03-01T01:21:02;11.73;;;10.67;;
19905;SDS011;10115;50.906;4.438;2023-03-01T01:23:32;11.53;;;10.83;;
19905;SDS011;10115;50.906;4.438;2023-03-01T01:26:02;11.07;;;10.20;;
19905;SDS011;10115;50.906;4.438;2023-03-01T01:28:29;11.63;;;10.83;;
19905;SDS011;10115;50.906;4.438;2023-03-01T01:30:55;11.10;;;10.43;;
19905;SDS011;10115;50.906;4.438;2023-03-01T01:33:21;11.90;;;10.37;;
19905;SDS011;10115;50.906;4.438;2023-03-01T01:35:47;10.47;;;9.93;;
19905;SDS011;10115;50.906;4.438;2023-03-01T01:38:12;11.83;;;10.90;;
19905;SDS011;10115;50.906;4.438;2023-03-01T01:40:45;10.67;;;9.77;;
19905;SDS011;10115;50.906;4.438;2023-03-01T01:46:05;10.83;;;10.13;;
19905;SDS011;10115;50.906;4.438;2023-03-01T01:48:52;11.30;;;10.03;;
19905;SDS011;10115;50.906;4.438;2023-03-01T01:51:24;12.60;;;11.73;;
19905;SDS011;10115;50.906;4.438;2023-03-01T01:54:03;14.97;;;10.27;;
19905;SDS011;10115;50.906;4.438;2023-03-01T01:56:36;10.37;;;9.80;;
19905;SDS011;10115;50.906;4.438;2023-03-01T01:59:04;10.70;;;10.00;;
19905;SDS011;10115;50.906;4.438;2023-03-01T02:01:30;12.93;;;12.03;;
19905;SDS011;10115;50.906;4.438;2023-03-01T02:03:56;11.97;;;10.80;;
19905;SDS011;10115;50.906;4.438;2023-03-01T02:08:59;11.93;;;11.07;;
19905;SDS011;10115;50.906;4.438;2023-03-01T02:11:27;10.30;;;9.63;;
19905;SDS011;10115;50.906;4.438;2023-03-01T02:13:55;11.23;;;10.27;;
19905;SDS011;10115;50.906;4.438;2023-03-01T02:16:21;10.37;;;9.77;;
19905;SDS011;10115;50.906;4.438;2023-03-01T02:18:47;11.57;;;10.87;;
19905;SDS011;10115;50.906;4.438;2023-03-01T02:23:44;10.43;;;9.83;;
19905;SDS011;10115;50.906;4.438;2023-03-01T02:28:57;11.37;;;10.43;;
19905;SDS011;10115;50.906;4.438;2023-03-01T02:31:22;12.40;;;11.30;;
19905;SDS011;10115;50.906;4.438;2023-03-01T02:34:07;13.20;;;12.07;;
19905;SDS011;10115;50.906;4.438;2023-03-01T02:36:35;11.20;;;10.33;;
19905;SDS011;10115;50.906;4.438;2023-03-01T02:39:03;10.87;;;10.27;;
19905;SDS011;10115;50.906;4.438;2023-03-01T02:41:34;10.13;;;9.53;;
19905;SDS011;10115;50.906;4.438;2023-03-01T02:44:03;12.10;;;11.40;;
19905;SDS011;10115;50.906;4.438;2023-03-01T02:46:29;12.00;;;10.20;;
19905;SDS011;10115;50.906;4.438;2023-03-01T02:48:56;11.77;;;10.83;;
19905;SDS011;10115;50.906;4.438;2023-03-01T02:54:12;12.17;;;11.40;;
19905;SDS011;10115;50.906;4.438;2023-03-01T02:56:41;10.97;;;10.37;;
19905;SDS011;10115;50.906;4.438;2023-03-01T02:59:19;11.53;;;10.73;;
19905;SDS011;10115;50.906;4.438;2023-03-01T03:01:47;12.10;;;11.17;;
19905;SDS011;10115;50.906;4.438;2023-03-01T03:04:16;11.00;;;10.30;;
19905;SDS011;10115;50.906;4.438;2023-03-01T03:06:44;13.80;;;13.00;;
19905;SDS011;10115;50.906;4.438;2023-03-01T03:09:10;12.47;;;11.73;;
19905;SDS011;10115;50.906;4.438;2023-03-01T03:11:37;11.73;;;11.07;;
19905;SDS011;10115;50.906;4.438;2023-03-01T03:14:04;12.30;;;11.23;;
19905;SDS011;10115;50.906;4.438;2023-03-01T03:16:30;12.50;;;11.53;;
19905;SDS011;10115;50.906;4.438;2023-03-01T03:18:56;11.63;;;10.93;;
19905;SDS011;10115;50.906;4.438;2023-03-01T03:21:30;11.53;;;10.83;;
19905;SDS011;10115;50.906;4.438;2023-03-01T03:23:57;12.33;;;11.30;;
19905;SDS011;10115;50.906;4.438;2023-03-01T03:26:23;11.33;;;10.53;;
19905;SDS011;10115;50.906;4.438;2023-03-01T03:28:49;13.03;;;12.23;;
19905;SDS011;10115;50.906;4.438;2023-03-01T03:31:15;12.03;;;11.33;;
19905;SDS011;10115;50.906;4.438;2023-03-01T03:33:40;13.03;;;12.23;;
19905;SDS011;10115;50.906;4.438;2023-03-01T03:36:06;11.43;;;10.73;;
19905;SDS011;10115;50.906;4.438;2023-03-01T03:38:42;11.97;;;11.17;;
19905;SDS011;10115;50.906;4.438;2023-03-01T03:41:09;11.20;;;10.33;;
19905;SDS011;10115;50.906;4.438;2023-03-01T03:43:35;10.97;;;10.37;;
19905;SDS011;10115;50.906;4.438;2023-03-01T03:46:03;14.33;;;10.23;;
19905;SDS011;10115;50.906;4.438;2023-03-01T03:48:39;11.53;;;10.73;;
19905;SDS011;10115;50.906;4.438;2023-03-01T03:51:08;11.10;;;10.40;;
19905;SDS011;10115;50.906;4.438;2023-03-01T03:53:35;11.17;;;10.47;;
19905;SDS011;10115;50.906;4.438;2023-03-01T03:56:01;11.80;;;10.83;;
19905;SDS011;10115;50.906;4.438;2023-03-01T03:58:27;10.10;;;9.50;;
19905;SDS011;10115;50.906;4.438;2023-03-01T04:00:53;11.57;;;10.97;;
19905;SDS011;10115;50.906;4.438;2023-03-01T04:03:21;11.13;;;10.53;;
19905;SDS011;10115;50.906;4.438;2023-03-01T04:05:47;10.63;;;10.00;;
19905;SDS011;10115;50.906;4.438;2023-03-01T04:08:15;12.77;;;12.07;;
19905;SDS011;10115;50.906;4.438;2023-03-01T04:10:45;11.80;;;10.90;;
19905;SDS011;10115;50.906;4.438;2023-03-01T04:13:13;11.57;;;10.63;;
19905;SDS011;10115;50.906;4.438;2023-03-01T04:15:40;11.27;;;10.57;;
19905;SDS011;10115;50.906;4.438;2023-03-01T04:18:08;11.30;;;10.47;;
19905;SDS011;10115;50.906;4.438;2023-03-01T04:20:36;11.83;;;11.03;;
19905;SDS011;10115;50.906;4.438;2023-03-01T04:23:04;11.20;;;10.50;;
19905;SDS011;10115;50.906;4.438;2023-03-01T04:25:58;10.90;;;10.17;;
19905;SDS011;10115;50.906;4.438;2023-03-01T04:28:25;11.33;;;10.73;;
19905;SDS011;10115;50.906;4.438;2023-03-01T04:30:53;11.53;;;10.73;;
19905;SDS011;10115;50.906;4.438;2023-03-01T04:33:19;10.77;;;10.07;;
19905;SDS011;10115;50.906;4.438;2023-03-01T04:35:46;12.83;;;12.03;;
19905;SDS011;10115;50.906;4.438;2023-03-01T04:38:14;9.77;;;9.30;;
19905;SDS011;10115;50.906;4.438;2023-03-01T04:40:40;11.53;;;10.83;;
19905;SDS011;10115;50.906;4.438;2023-03-01T04:43:08;12.00;;;11.17;;
19905;SDS011;10115;50.906;4.438;2023-03-01T04:45:35;11.10;;;10.30;;
19905;SDS011;10115;50.906;4.438;2023-03-01T04:48:01;11.47;;;10.53;;
19905;SDS011;10115;50.906;4.438;2023-03-01T04:50:28;11.87;;;11.17;;
19905;SDS011;10115;50.906;4.438;2023-03-01T04:52:54;11.87;;;10.77;;
19905;SDS011;10115;50.906;4.438;2023-03-01T04:55:23;11.87;;;11.10;;
19905;SDS011;10115;50.906;4.438;2023-03-01T04:57:50;12.70;;;11.03;;
19905;SDS011;10115;50.906;4.438;2023-03-01T05:00:16;12.47;;;11.30;;
19905;SDS011;10115;50.906;4.438;2023-03-01T05:02:46;14.07;;;12.33;;
19905;SDS011;10115;50.906;4.438;2023-03-01T05:05:18;10.40;;;9.80;;
19905;SDS011;10115;50.906;4.438;2023-03-01T05:07:50;9.40;;;8.90;;
19905;SDS011;10115;50.906;4.438;2023-03-01T05:10:20;11.47;;;10.77;;
19905;SDS011;10115;50.906;4.438;2023-03-01T05:12:47;11.23;;;10.53;;
19905;SDS011;10115;50.906;4.438;2023-03-01T05:15:12;11.57;;;10.97;;
19905;SDS011;10115;50.906;4.438;2023-03-01T05:17:39;11.93;;;11.13;;
19905;SDS011;10115;50.906;4.438;2023-03-01T05:20:04;11.23;;;10.53;;
19905;SDS011;10115;50.906;4.438;2023-03-01T05:22:36;9.93;;;9.40;;
19905;SDS011;10115;50.906;4.438;2023-03-01T05:25:02;13.00;;;11.73;;
19905;SDS011;10115;50.906;4.438;2023-03-01T05:27:28;10.67;;;10.07;;
19905;SDS011;10115;50.906;4.438;2023-03-01T05:29:58;10.03;;;9.43;;
19905;SDS011;10115;50.906;4.438;2023-03-01T05:32:23;10.10;;;9.50;;
19905;SDS011;10115;50.906;4.438;2023-03-01T05:34:49;11.53;;;10.83;;
19905;SDS011;10115;50.906;4.438;2023-03-01T05:37:17;11.17;;;10.57;;
19905;SDS011;10115;50.906;4.438;2023-03-01T05:39:42;11.53;;;10.83;;
19905;SDS011;10115;50.906;4.438;2023-03-01T05:42:11;11.37;;;10.67;;
19905;SDS011;10115;50.906;4.438;2023-03-01T05:44:37;10.13;;;9.63;;
19905;SDS011;10115;50.906;4.438;2023-03-01T05:47:03;11.27;;;10.67;;
19905;SDS011;10115;50.906;4.438;2023-03-01T05:49:29;12.20;;;11.33;;
19905;SDS011;10115;50.906;4.438;2023-03-01T05:51:55;11.73;;;11.03;;
19905;SDS011;10115;50.906;4.438;2023-03-01T05:54:21;11.60;;;10.80;;
19905;SDS011;10115;50.906;4.438;2023-03-01T05:56:47;11.03;;;10.53;;
19905;SDS011;10115;50.906;4.438;2023-03-01T05:59:13;9.30;;;8.80;;
19905;SDS011;10115;50.906;4.438;2023-03-01T06:01:40;10.07;;;9.50;;
19905;SDS011;10115;50.906;4.438;2023-03-01T06:04:05;10.67;;;10.17;;
19905;SDS011;10115;50.906;4.438;2023-03-01T06:06:34;11.00;;;10.20;;
19905;SDS011;10115;50.906;4.438;2023-03-01T06:09:02;12.10;;;11.40;;
19905;SDS011;10115;50.906;4.438;2023-03-01T06:11:29;9.63;;;9.00;;
19905;SDS011;10115;50.906;4.438;2023-03-01T06:13:54;9.87;;;9.13;;
19905;SDS011;10115;50.906;4.438;2023-03-01T06:16:20;12.13;;;11.00;;
19905;SDS011;10115;50.906;4.438;2023-03-01T06:18:46;12.37;;;11.57;;
19905;SDS011;10115;50.906;4.438;2023-03-01T06:21:11;12.77;;;11.67;;
19905;SDS011;10115;50.906;4.438;2023-03-01T06:23:37;11.80;;;11.00;;
19905;SDS011;10115;50.906;4.438;2023-03-01T06:26:06;10.13;;;9.47;;
19905;SDS011;10115;50.906;4.438;2023-03-01T06:28:33;12.30;;;11.23;;
19905;SDS011;10115;50.906;4.438;2023-03-01T06:30:58;12.40;;;10.50;;
19905;SDS011;10115;50.906;4.438;2023-03-01T06:33:24;11.27;;;10.77;;
19905;SDS011;10115;50.906;4.438;2023-03-01T06:35:50;11.93;;;11.33;;
19905;SDS011;10115;50.906;4.438;2023-03-01T06:38:16;13.10;;;12.30;;
19905;SDS011;10115;50.906;4.438;2023-03-01T06:40:44;10.87;;;10.27;;
19905;SDS011;10115;50.906;4.438;2023-03-01T06:43:10;10.83;;;10.13;;
19905;SDS011;10115;50.906;4.438;2023-03-01T06:45:36;10.93;;;10.23;;
19905;SDS011;10115;50.906;4.438;2023-03-01T06:48:03;11.10;;;10.47;;
19905;SDS011;10115;50.906;4.438;2023-03-01T06:50:30;9.07;;;8.60;;
19905;SDS011;10115;50.906;4.438;2023-03-01T06:52:56;11.23;;;10.53;;
19905;SDS011;10115;50.906;4.438;2023-03-01T06:55:22;11.60;;;10.87;;
19905;SDS011;10115;50.906;4.438;2023-03-01T06:57:47;11.30;;;10.67;;
19905;SDS011;10115;50.906;4.438;2023-03-01T07:00:13;13.03;;;11.70;;
19905;SDS011;10115;50.906;4.438;2023-03-01T07:02:39;11.97;;;11.23;;
19905;SDS011;10115;50.906;4.438;2023-03-01T07:05:05;11.23;;;10.60;;
19905;SDS011;10115;50.906;4.438;2023-03-01T07:07:31;13.13;;;12.37;;
19905;SDS011;10115;50.906;4.438;2023-03-01T07:09:57;10.87;;;10.13;;
19905;SDS011;10115;50.906;4.438;2023-03-01T07:12:22;10.13;;;9.63;;
19905;SDS011;10115;50.906;4.438;2023-03-01T07:14:48;11.70;;;10.63;;
19905;SDS011;10115;50.906;4.438;2023-03-01T07:17:14;12.80;;;11.90;;
19905;SDS011;10115;50.906;4.438;2023-03-01T07:19:39;11.80;;;11.10;;
19905;SDS011;10115;50.906;4.438;2023-03-01T07:22:05;11.77;;;11.10;;
19905;SDS011;10115;50.906;4.438;2023-03-01T07:24:33;13.00;;;11.97;;
19905;SDS011;10115;50.906;4.438;2023-03-01T07:26:59;10.83;;;10.13;;
19905;SDS011;10115;50.906;4.438;2023-03-01T07:29:24;12.30;;;11.27;;
19905;SDS011;10115;50.906;4.438;2023-03-01T07:31:50;12.67;;;11.83;;
19905;SDS011;10115;50.906;4.438;2023-03-01T07:34:16;11.83;;;10.93;;
19905;SDS011;10115;50.906;4.438;2023-03-01T07:36:41;12.77;;;11.80;;
19905;SDS011;10115;50.906;4.438;2023-03-01T07:39:09;12.13;;;11.20;;
19905;SDS011;10115;50.906;4.438;2023-03-01T07:41:35;11.53;;;10.73;;
19905;SDS011;10115;50.906;4.438;2023-03-01T07:44:01;11.03;;;10.33;;
19905;SDS011;10115;50.906;4.438;2023-03-01T07:46:26;13.10;;;12.00;;
19905;SDS011;10115;50.906;4.438;2023-03-01T07:48:52;11.63;;;11.00;;
19905;SDS011;10115;50.906;4.438;2023-03-01T07:51:18;12.60;;;11.73;;
19905;SDS011;10115;50.906;4.438;2023-03-01T07:53:45;10.00;;;9.00;;
19905;SDS011;10115;50.906;4.438;2023-03-01T07:56:13;16.30;;;11.37;;
19905;SDS011;10115;50.906;4.438;2023-03-01T07:58:41;12.67;;;11.03;;
19905;SDS011;10115;50.906;4.438;2023-03-01T08:01:08;10.70;;;10.00;;
19905;SDS011;10115;50.906;4.438;2023-03-01T08:03:36;12.27;;;11.53;;
19905;SDS011;10115;50.906;4.438;2023-03-01T08:06:03;10.83;;;9.97;;
19905;SDS011;10115;50.906;4.438;2023-03-01T08:08:31;11.43;;;10.43;;
19905;SDS011;10115;50.906;4.438;2023-03-01T08:10:58;10.43;;;9.67;;
19905;SDS011;10115;50.906;4.438;2023-03-01T08:13:24;11.17;;;10.17;;
19905;SDS011;10115;50.906;4.438;2023-03-01T08:15:50;10.60;;;9.93;;
19905;SDS011;10115;50.906;4.438;2023-03-01T08:18:16;12.07;;;11.30;;
19905;SDS011;10115;50.906;4.438;2023-03-01T08:20:43;9.93;;;9.33;;
19905;SDS011;10115;50.906;4.438;2023-03-01T08:23:09;12.67;;;11.73;;
19905;SDS011;10115;50.906;4.438;2023-03-01T08:25:35;10.83;;;10.13;;
19905;SDS011;10115;50.906;4.438;2023-03-01T08:28:01;11.30;;;10.60;;
19905;SDS011;10115;50.906;4.438;2023-03-01T08:30:27;9.60;;;8.90;;
19905;SDS011;10115;50.906;4.438;2023-03-01T08:32:53;10.00;;;9.30;;
19905;SDS011;10115;50.906;4.438;2023-03-01T08:35:19;10.67;;;9.67;;
19905;SDS011;10115;50.906;4.438;2023-03-01T08:37:45;12.27;;;11.47;;
19905;SDS011;10115;50.906;4.438;2023-03-01T08:40:11;10.13;;;9.33;;
19905;SDS011;10115;50.906;4.438;2023-03-01T08:42:38;9.83;;;9.37;;
19905;SDS011;10115;50.906;4.438;2023-03-01T08:45:05;12.07;;;11.23;;
19905;SDS011;10115;50.906;4.438;2023-03-01T08:47:31;9.27;;;8.63;;
19905;SDS011;10115;50.906;4.438;2023-03-01T08:49:58;11.27;;;10.63;;
19905;SDS011;10115;50.906;4.438;2023-03-01T08:52:24;10.33;;;9.50;;
19905;SDS011;10115;50.906;4.438;2023-03-01T08:54:50;11.10;;;10.20;;
19905;SDS011;10115;50.906;4.438;2023-03-01T08:57:16;11.97;;;10.80;;
19905;SDS011;10115;50.906;4.438;2023-03-01T08:59:42;11.97;;;11.13;;
19905;SDS011;10115;50.906;4.438;2023-03-01T09:02:12;11.37;;;10.37;;
19905;SDS011;10115;50.906;4.438;2023-03-01T09:04:42;11.67;;;10.77;;
19905;SDS011;10115;50.906;4.438;2023-03-01T09:07:09;12.30;;;11.40;;
19905;SDS011;10115;50.906;4.438;2023-03-01T09:09:35;11.53;;;10.47;;
19905;SDS011;10115;50.906;4.438;2023-03-01T09:12:01;11.70;;;10.80;;
19905;SDS011;10115;50.906;4.438;2023-03-01T09:14:28;12.07;;;10.93;;
19905;SDS011;10115;50.906;4.438;2023-03-01T09:16:54;10.17;;;9.47;;
19905;SDS011;10115;50.906;4.438;2023-03-01T09:19:19;9.33;;;8.63;;
19905;SDS011;10115;50.906;4.438;2023-03-01T09:21:45;11.00;;;9.97;;
19905;SDS011;10115;50.906;4.438;2023-03-01T09:24:17;11.83;;;10.73;;
19905;SDS011;10115;50.906;4.438;2023-03-01T09:26:45;12.63;;;11.57;;
19905;SDS011;10115;50.906;4.438;2023-03-01T09:29:11;10.63;;;9.83;;
19905;SDS011;10115;50.906;4.438;2023-03-01T09:31:38;11.83;;;10.93;;
19905;SDS011;10115;50.906;4.438;2023-03-01T09:34:03;13.13;;;12.03;;
19905;SDS011;10115;50.906;4.438;2023-03-01T09:36:30;11.97;;;10.90;;
19905;SDS011;10115;50.906;4.438;2023-03-01T09:38:57;10.63;;;9.83;;
19905;SDS011;10115;50.906;4.438;2023-03-01T09:46:48;9.97;;;8.33;;
19905;SDS011;10115;50.906;4.438;2023-03-01T09:49:20;10.13;;;9.53;;
19905;SDS011;10115;50.906;4.438;2023-03-01T09:52:36;9.70;;;9.10;;
19905;SDS011;10115;50.906;4.438;2023-03-01T09:54:51;11.63;;;10.83;;
19905;SDS011;10115;50.906;4.438;2023-03-01T09:57:22;11.23;;;10.43;;
19905;SDS011;10115;50.906;4.438;2023-03-01T10:02:39;7.83;;;7.43;;
19905;SDS011;10115;50.906;4.438;2023-03-01T10:10:39;8.70;;;8.10;;
19905;SDS011;10115;50.906;4.438;2023-03-01T10:19:27;11.33;;;10.47;;
19905;SDS011;10115;50.906;4.438;2023-03-01T10:24:40;10.20;;;9.00;;
19905;SDS011;10115;50.906;4.438;2023-03-01T10:27:25;10.83;;;9.63;;
19905;SDS011;10115;50.906;4.438;2023-03-01T10:30:09;10.40;;;9.60;;
19905;SDS011;10115;50.906;4.438;2023-03-01T10:32:56;10.47;;;9.77;;
19905;SDS011;10115;50.906;4.438;2023-03-01T10:35:24;10.07;;;9.43;;
19905;SDS011;10115;50.906;4.438;2023-03-01T10:38:05;8.67;;;8.07;;
19905;SDS011;10115;50.906;4.438;2023-03-01T10:40:33;11.87;;;10.97;;
19905;SDS011;10115;50.906;4.438;2023-03-01T10:43:01;11.23;;;10.30;;
19905;SDS011;10115;50.906;4.438;2023-03-01T10:50:38;10.57;;;9.87;;
19905;SDS011;10115;50.906;4.438;2023-03-01T10:53:16;10.20;;;9.37;;
19905;SDS011;10115;50.906;4.438;2023-03-01T10:56:07;9.80;;;9.10;;
19905;SDS011;10115;50.906;4.438;2023-03-01T10:58:34;11.13;;;10.03;;
19905;SDS011;10115;50.906;4.438;2023-03-01T11:01:03;12.03;;;10.97;;
19905;SDS011;10115;50.906;4.438;2023-03-01T11:03:38;11.23;;;10.13;;
19905;SDS011;10115;50.906;4.438;2023-03-01T11:06:05;9.63;;;8.93;;
19905;SDS011;10115;50.906;4.438;2023-03-01T11:08:41;11.53;;;10.47;;
19905;SDS011;10115;50.906;4.438;2023-03-01T11:11:13;7.73;;;7.23;;
19905;SDS011;10115;50.906;4.438;2023-03-01T11:16:36;9.70;;;8.20;;
19905;SDS011;10115;50.906;4.438;2023-03-01T11:19:15;11.10;;;9.63;;
19905;SDS011;10115;50.906;4.438;2023-03-01T11:21:46;9.70;;;8.90;;
19905;SDS011;10115;50.906;4.438;2023-03-01T11:24:15;8.27;;;7.77;;
19905;SDS011;10115;50.906;4.438;2023-03-01T11:26:47;10.83;;;9.73;;
19905;SDS011;10115;50.906;4.438;2023-03-01T11:29:26;9.73;;;9.10;;
19905;SDS011;10115;50.906;4.438;2023-03-01T11:31:58;9.80;;;9.07;;
19905;SDS011;10115;50.906;4.438;2023-03-01T11:34:34;9.80;;;9.00;;
19905;SDS011;10115;50.906;4.438;2023-03-01T11:37:46;12.37;;;9.97;;
19905;SDS011;10115;50.906;4.438;2023-03-01T11:40:13;11.23;;;10.07;;
19905;SDS011;10115;50.906;4.438;2023-03-01T11:42:54;9.90;;;9.00;;
19905;SDS011;10115;50.906;4.438;2023-03-01T11:46:00;8.93;;;8.30;;
19905;SDS011;10115;50.906;4.438;2023-03-01T11:48:46;17.37;;;8.60;;
19905;SDS011;10115;50.906;4.438;2023-03-01T11:54:06;13.07;;;9.53;;
19905;SDS011;10115;50.906;4.438;2023-03-01T11:57:00;8.93;;;8.33;;
19905;SDS011;10115;50.906;4.438;2023-03-01T12:07:54;9.10;;;8.37;;
19905;SDS011;10115;50.906;4.438;2023-03-01T12:10:27;8.57;;;7.97;;
19905;SDS011;10115;50.906;4.438;2023-03-01T12:18:42;10.13;;;9.13;;
19905;SDS011;10115;50.906;4.438;2023-03-01T12:26:47;10.17;;;9.20;;
19905;SDS011;10115;50.906;4.438;2023-03-01T12:32:39;10.10;;;9.17;;
19905;SDS011;10115;50.906;4.438;2023-03-01T12:38:08;8.53;;;7.80;;
19905;SDS011;10115;50.906;4.438;2023-03-01T12:49:08;7.63;;;7.10;;
19905;SDS011;10115;50.906;4.438;2023-03-01T12:51:36;9.23;;;8.43;;
19905;SDS011;10115;50.906;4.438;2023-03-01T12:54:16;11.03;;;9.40;;
19905;SDS011;10115;50.906;4.438;2023-03-01T12:56:50;9.17;;;8.50;;
19905;SDS011;10115;50.906;4.438;2023-03-01T13:09:39;7.93;;;7.30;;
19905;SDS011;10115;50.906;4.438;2023-03-01T13:18:01;8.87;;;8.17;;
19905;SDS011;10115;50.906;4.438;2023-03-01T13:52:21;8.67;;;7.97;;
19905;SDS011;10115;50.906;4.438;2023-03-01T13:55:27;7.80;;;7.20;;
19905;SDS011;10115;50.906;4.438;2023-03-01T13:58:25;8.13;;;7.53;;
19905;SDS011;10115;50.906;4.438;2023-03-01T14:00:56;8.70;;;7.97;;
19905;SDS011;10115;50.906;4.438;2023-03-01T14:03:26;10.93;;;8.53;;
19905;SDS011;10115;50.906;4.438;2023-03-01T14:06:07;9.30;;;8.57;;
19905;SDS011;10115;50.906;4.438;2023-03-01T14:08:35;8.53;;;7.70;;
19905;SDS011;10115;50.906;4.438;2023-03-01T14:19:25;7.87;;;7.17;;
19905;SDS011;10115;50.906;4.438;2023-03-01T14:24:29;10.13;;;8.10;;
19905;SDS011;10115;50.906;4.438;2023-03-01T14:26:58;8.13;;;7.43;;
19905;SDS011;10115;50.906;4.438;2023-03-01T14:29:36;11.07;;;9.17;;
19905;SDS011;10115;50.906;4.438;2023-03-01T14:32:10;8.80;;;8.00;;
19905;SDS011;10115;50.906;4.438;2023-03-01T14:34:43;8.43;;;7.47;;
19905;SDS011;10115;50.906;4.438;2023-03-01T14:37:11;10.07;;;8.37;;
19905;SDS011;10115;50.906;4.438;2023-03-01T14:39:49;9.03;;;8.23;;
19905;SDS011;10115;50.906;4.438;2023-03-01T14:42:15;14.23;;;8.63;;
19905;SDS011;10115;50.906;4.438;2023-03-01T14:44:45;8.97;;;8.17;;
19905;SDS011;10115;50.906;4.438;2023-03-01T14:47:14;9.83;;;8.33;;
19905;SDS011;10115;50.906;4.438;2023-03-01T14:49:49;8.00;;;7.30;;
19905;SDS011;10115;50.906;4.438;2023-03-01T14:52:21;8.33;;;7.63;;
19905;SDS011;10115;50.906;4.438;2023-03-01T14:54:51;9.73;;;8.43;;
19905;SDS011;10115;50.906;4.438;2023-03-01T14:57:25;9.33;;;7.67;;
19905;SDS011;10115;50.906;4.438;2023-03-01T14:59:52;12.27;;;7.93;;
19905;SDS011;10115;50.906;4.438;2023-03-01T15:02:20;14.40;;;8.57;;
19905;SDS011;10115;50.906;4.438;2023-03-01T15:04:52;8.73;;;7.47;;
19905;SDS011;10115;50.906;4.438;2023-03-01T15:07:33;8.63;;;7.77;;
19905;SDS011;10115;50.906;4.438;2023-03-01T15:10:02;7.67;;;6.63;;
19905;SDS011;10115;50.906;4.438;2023-03-01T15:12:36;8.80;;;7.87;;
19905;SDS011;10115;50.906;4.438;2023-03-01T15:15:22;9.53;;;8.47;;
19905;SDS011;10115;50.906;4.438;2023-03-01T15:18:03;8.23;;;7.53;;
19905;SDS011;10115;50.906;4.438;2023-03-01T15:20:47;9.73;;;8.20;;
19905;SDS011;10115;50.906;4.438;2023-03-01T15:23:21;8.47;;;7.67;;
19905;SDS011;10115;50.906;4.438;2023-03-01T15:25:48;9.23;;;8.07;;
19905;SDS011;10115;50.906;4.438;2023-03-01T15:28:26;9.33;;;8.37;;
19905;SDS011;10115;50.906;4.438;2023-03-01T15:31:37;6.97;;;6.50;;
19905;SDS011;10115;50.906;4.438;2023-03-01T15:33:46;9.40;;;8.17;;
19905;SDS011;10115;50.906;4.438;2023-03-01T15:39:04;8.47;;;7.60;;
19905;SDS011;10115;50.906;4.438;2023-03-01T15:41:48;9.33;;;7.83;;
19905;SDS011;10115;50.906;4.438;2023-03-01T15:44:17;7.90;;;7.20;;
19905;SDS011;10115;50.906;4.438;2023-03-01T15:46:51;11.33;;;8.43;;
19905;SDS011;10115;50.906;4.438;2023-03-01T15:52:03;8.07;;;6.73;;
19905;SDS011;10115;50.906;4.438;2023-03-01T15:54:30;8.57;;;7.67;;
19905;SDS011;10115;50.906;4.438;2023-03-01T15:56:56;7.07;;;6.57;;
19905;SDS011;10115;50.906;4.438;2023-03-01T15:59:22;8.30;;;7.50;;
19905;SDS011;10115;50.906;4.438;2023-03-01T16:01:48;9.43;;;8.27;;
19905;SDS011;10115;50.906;4.438;2023-03-01T16:04:15;9.33;;;8.53;;
19905;SDS011;10115;50.906;4.438;2023-03-01T16:06:54;8.17;;;7.40;;
19905;SDS011;10115;50.906;4.438;2023-03-01T16:09:24;8.23;;;7.47;;
19905;SDS011;10115;50.906;4.438;2023-03-01T16:11:51;15.60;;;9.07;;
19905;SDS011;10115;50.906;4.438;2023-03-01T16:14:18;9.07;;;8.33;;
19905;SDS011;10115;50.906;4.438;2023-03-01T16:16:44;15.53;;;9.07;;
19905;SDS011;10115;50.906;4.438;2023-03-01T16:19:10;8.50;;;7.80;;
19905;SDS011;10115;50.906;4.438;2023-03-01T16:21:36;7.93;;;7.23;;
19905;SDS011;10115;50.906;4.438;2023-03-01T16:24:02;8.97;;;8.17;;
19905;SDS011;10115;50.906;4.438;2023-03-01T16:26:29;9.83;;;8.17;;
19905;SDS011;10115;50.906;4.438;2023-03-01T16:28:55;8.73;;;7.93;;
19905;SDS011;10115;50.906;4.438;2023-03-01T16:31:22;8.57;;;7.87;;
19905;SDS011;10115;50.906;4.438;2023-03-01T16:33:48;10.13;;;8.93;;
19905;SDS011;10115;50.906;4.438;2023-03-01T16:36:18;8.73;;;7.83;;
19905;SDS011;10115;50.906;4.438;2023-03-01T16:38:44;8.27;;;7.47;;
19905;SDS011;10115;50.906;4.438;2023-03-01T16:41:15;8.53;;;7.83;;
19905;SDS011;10115;50.906;4.438;2023-03-01T16:43:43;8.57;;;7.77;;
19905;SDS011;10115;50.906;4.438;2023-03-01T16:46:12;7.97;;;7.37;;
19905;SDS011;10115;50.906;4.438;2023-03-01T16:48:39;9.50;;;8.60;;
19905;SDS011;10115;50.906;4.438;2023-03-01T16:51:06;8.43;;;7.50;;
19905;SDS011;10115;50.906;4.438;2023-03-01T16:53:33;9.13;;;8.40;;
19905;SDS011;10115;50.906;4.438;2023-03-01T16:56:02;7.33;;;6.83;;
19905;SDS011;10115;50.906;4.438;2023-03-01T16:58:30;8.90;;;8.20;;
19905;SDS011;10115;50.906;4.438;2023-03-01T17:00:56;9.80;;;8.90;;
19905;SDS011;10115;50.906;4.438;2023-03-01T17:03:28;8.23;;;7.43;;
19905;SDS011;10115;50.906;4.438;2023-03-01T17:05:54;9.23;;;8.33;;
19905;SDS011;10115;50.906;4.438;2023-03-01T17:08:20;8.27;;;7.70;;
19905;SDS011;10115;50.906;4.438;2023-03-01T17:10:45;9.37;;;8.57;;